Airfield :
LOGIN :

Register | Disclaimer

   EN    FR    IT 

 










Legend :    VFR   Marginal VFR   IFR   Intensive IFR   Very Intensive IFR
Visi :
Ceiling :
>= 8 km
>= 3000ft
5 to 8 km
1000 to 3000 ft
1500m to 5 km
500 to 1000 ft
800 to 1500m
200 to 500 ft
< 800m
< 200 ft
Symbols :   Thunderstorms  Fog  Heavy snow  Heavy precipitations  Wind > 20 kt
SIGMETs :     Misc.  Thunderstorms  Icing  Turbulence  Mountain Waves  Volcanic Ashes






- Airport Elevation : 876 ft
- IATA code : MBX


LJMB - Maribor

CURRENT METAR :
  • 281700Z VRB01KT CAVOK 19/15 Q1020

EXPIRED METARs :
  • 281630Z 20003KT CAVOK 21/14 Q1020
  • 281600Z 16003KT CAVOK 22/14 Q1020
  • 281530Z 16005KT CAVOK 23/13 Q1020
  • 281500Z 12005KT CAVOK 23/13 Q1020
  • 281430Z 11004KT 9999 FEW050 SCT090 24/13 Q1020

TAF TAF LJMB
Valid from the 28 at 12:00 until the 29 at 12:00 UTC


281100Z 2812/2912 18004KT 9999 FEW045



MET'MAP, your aeronautical weather chart ! - Copyright ORBIFLY December 2007 - Disclaimer

ORBIFLY MET'MAP TEAM :

Programming & Development : Alexandra Zaïnal
Concept & original design : Baudouin d'Aumeries
Assistance for programming : Marc-Olivier Méhu
Technical & hardware support : Manuel Goepfert

Contact : metmap@orbifly.com




SOURCES & CREDITS :

   NOAA